sensor_id;sensor_type;location;lat;lon;timestamp;P1;durP1;ratioP1;P2;durP2;ratioP2
3050;SDS011;1535;51.098;6.414;2023-05-07T00:01:41;3.50;;;3.40;;
3050;SDS011;1535;51.098;6.414;2023-05-07T00:04:08;3.63;;;3.53;;
3050;SDS011;1535;51.098;6.414;2023-05-07T00:06:37;3.30;;;3.20;;
3050;SDS011;1535;51.098;6.414;2023-05-07T00:09:05;3.47;;;3.37;;
3050;SDS011;1535;51.098;6.414;2023-05-07T00:11:32;3.93;;;3.83;;
3050;SDS011;1535;51.098;6.414;2023-05-07T00:13:59;4.90;;;4.50;;
3050;SDS011;1535;51.098;6.414;2023-05-07T00:16:26;3.10;;;3.00;;
3050;SDS011;1535;51.098;6.414;2023-05-07T00:18:53;3.50;;;3.40;;
3050;SDS011;1535;51.098;6.414;2023-05-07T00:21:20;3.50;;;3.40;;
3050;SDS011;1535;51.098;6.414;2023-05-07T00:23:53;3.70;;;3.60;;
3050;SDS011;1535;51.098;6.414;2023-05-07T00:26:20;3.27;;;3.17;;
3050;SDS011;1535;51.098;6.414;2023-05-07T00:28:47;3.07;;;2.97;;
3050;SDS011;1535;51.098;6.414;2023-05-07T00:31:16;3.07;;;2.97;;
3050;SDS011;1535;51.098;6.414;2023-05-07T00:33:42;3.33;;;3.23;;
3050;SDS011;1535;51.098;6.414;2023-05-07T00:36:09;2.73;;;2.63;;
3050;SDS011;1535;51.098;6.414;2023-05-07T00:38:38;3.00;;;2.90;;
3050;SDS011;1535;51.098;6.414;2023-05-07T00:41:06;3.10;;;3.00;;
3050;SDS011;1535;51.098;6.414;2023-05-07T00:43:33;3.40;;;3.30;;
3050;SDS011;1535;51.098;6.414;2023-05-07T00:46:01;3.30;;;3.20;;
3050;SDS011;1535;51.098;6.414;2023-05-07T00:48:28;3.10;;;3.00;;
3050;SDS011;1535;51.098;6.414;2023-05-07T00:50:57;3.13;;;3.03;;
3050;SDS011;1535;51.098;6.414;2023-05-07T00:53:24;3.13;;;3.03;;
3050;SDS011;1535;51.098;6.414;2023-05-07T00:55:51;2.87;;;2.77;;
3050;SDS011;1535;51.098;6.414;2023-05-07T00:58:20;3.33;;;3.23;;
3050;SDS011;1535;51.098;6.414;2023-05-07T01:00:47;3.20;;;3.10;;
3050;SDS011;1535;51.098;6.414;2023-05-07T01:03:15;3.47;;;3.37;;
3050;SDS011;1535;51.098;6.414;2023-05-07T01:05:42;3.43;;;3.33;;
3050;SDS011;1535;51.098;6.414;2023-05-07T01:08:12;3.40;;;3.30;;
3050;SDS011;1535;51.098;6.414;2023-05-07T01:10:40;3.20;;;3.10;;
3050;SDS011;1535;51.098;6.414;2023-05-07T01:13:08;3.87;;;3.67;;
3050;SDS011;1535;51.098;6.414;2023-05-07T01:15:36;2.97;;;2.87;;
3050;SDS011;1535;51.098;6.414;2023-05-07T01:18:05;3.10;;;3.00;;
3050;SDS011;1535;51.098;6.414;2023-05-07T01:20:33;2.80;;;2.70;;
3050;SDS011;1535;51.098;6.414;2023-05-07T01:23:01;3.10;;;3.00;;
3050;SDS011;1535;51.098;6.414;2023-05-07T01:25:30;2.97;;;2.87;;
3050;SDS011;1535;51.098;6.414;2023-05-07T01:27:58;2.90;;;2.80;;
3050;SDS011;1535;51.098;6.414;2023-05-07T01:30:26;3.10;;;3.00;;
3050;SDS011;1535;51.098;6.414;2023-05-07T01:32:56;3.10;;;3.00;;
3050;SDS011;1535;51.098;6.414;2023-05-07T01:35:29;3.00;;;2.90;;
3050;SDS011;1535;51.098;6.414;2023-05-07T01:38:01;3.37;;;3.27;;
3050;SDS011;1535;51.098;6.414;2023-05-07T01:40:29;3.70;;;3.60;;
3050;SDS011;1535;51.098;6.414;2023-05-07T01:42:57;3.73;;;3.63;;
3050;SDS011;1535;51.098;6.414;2023-05-07T01:45:24;3.40;;;3.30;;
3050;SDS011;1535;51.098;6.414;2023-05-07T01:47:52;3.50;;;3.40;;
3050;SDS011;1535;51.098;6.414;2023-05-07T01:50:19;3.40;;;3.30;;
3050;SDS011;1535;51.098;6.414;2023-05-07T01:52:46;3.30;;;3.20;;
3050;SDS011;1535;51.098;6.414;2023-05-07T01:55:18;3.50;;;3.40;;
3050;SDS011;1535;51.098;6.414;2023-05-07T01:57:46;3.30;;;3.20;;
3050;SDS011;1535;51.098;6.414;2023-05-07T02:00:13;3.60;;;3.50;;
3050;SDS011;1535;51.098;6.414;2023-05-07T02:02:42;3.50;;;3.40;;
3050;SDS011;1535;51.098;6.414;2023-05-07T02:05:09;4.10;;;4.00;;
3050;SDS011;1535;51.098;6.414;2023-05-07T02:07:36;3.93;;;3.83;;
3050;SDS011;1535;51.098;6.414;2023-05-07T02:10:04;3.40;;;3.30;;
3050;SDS011;1535;51.098;6.414;2023-05-07T02:12:34;4.20;;;4.10;;
3050;SDS011;1535;51.098;6.414;2023-05-07T02:15:01;4.10;;;4.00;;
3050;SDS011;1535;51.098;6.414;2023-05-07T02:17:28;4.17;;;4.07;;
3050;SDS011;1535;51.098;6.414;2023-05-07T02:19:59;4.53;;;4.43;;
3050;SDS011;1535;51.098;6.414;2023-05-07T02:22:25;4.00;;;3.90;;
3050;SDS011;1535;51.098;6.414;2023-05-07T02:24:52;4.47;;;4.37;;
3050;SDS011;1535;51.098;6.414;2023-05-07T02:27:19;4.07;;;3.97;;
3050;SDS011;1535;51.098;6.414;2023-05-07T02:29:48;5.03;;;4.87;;
3050;SDS011;1535;51.098;6.414;2023-05-07T02:32:15;3.80;;;3.70;;
3050;SDS011;1535;51.098;6.414;2023-05-07T02:34:42;4.60;;;4.50;;
3050;SDS011;1535;51.098;6.414;2023-05-07T02:37:09;4.37;;;4.27;;
3050;SDS011;1535;51.098;6.414;2023-05-07T02:39:35;4.47;;;4.37;;
3050;SDS011;1535;51.098;6.414;2023-05-07T02:42:03;4.27;;;4.17;;
3050;SDS011;1535;51.098;6.414;2023-05-07T02:44:30;4.60;;;4.50;;
3050;SDS011;1535;51.098;6.414;2023-05-07T02:46:58;4.43;;;4.33;;
3050;SDS011;1535;51.098;6.414;2023-05-07T02:49:25;4.23;;;4.13;;
3050;SDS011;1535;51.098;6.414;2023-05-07T02:51:52;3.87;;;3.77;;
3050;SDS011;1535;51.098;6.414;2023-05-07T02:54:20;4.00;;;3.90;;
3050;SDS011;1535;51.098;6.414;2023-05-07T02:56:48;4.20;;;4.10;;
3050;SDS011;1535;51.098;6.414;2023-05-07T02:59:15;4.17;;;4.07;;
3050;SDS011;1535;51.098;6.414;2023-05-07T03:01:42;4.00;;;3.90;;
3050;SDS011;1535;51.098;6.414;2023-05-07T03:04:11;4.10;;;4.00;;
3050;SDS011;1535;51.098;6.414;2023-05-07T03:06:38;3.80;;;3.70;;
3050;SDS011;1535;51.098;6.414;2023-05-07T03:09:04;3.60;;;3.50;;
3050;SDS011;1535;51.098;6.414;2023-05-07T03:11:33;4.00;;;3.90;;
3050;SDS011;1535;51.098;6.414;2023-05-07T03:14:01;4.00;;;3.90;;
3050;SDS011;1535;51.098;6.414;2023-05-07T03:16:28;4.00;;;3.90;;
3050;SDS011;1535;51.098;6.414;2023-05-07T03:18:56;3.97;;;3.87;;
3050;SDS011;1535;51.098;6.414;2023-05-07T03:21:27;3.87;;;3.77;;
3050;SDS011;1535;51.098;6.414;2023-05-07T03:23:54;4.03;;;3.93;;
3050;SDS011;1535;51.098;6.414;2023-05-07T03:26:20;4.13;;;4.03;;
3050;SDS011;1535;51.098;6.414;2023-05-07T03:28:48;4.27;;;4.17;;
3050;SDS011;1535;51.098;6.414;2023-05-07T03:31:15;3.60;;;3.50;;
3050;SDS011;1535;51.098;6.414;2023-05-07T03:33:50;4.10;;;4.00;;
3050;SDS011;1535;51.098;6.414;2023-05-07T03:36:18;4.53;;;4.43;;
3050;SDS011;1535;51.098;6.414;2023-05-07T03:38:46;4.30;;;4.20;;
3050;SDS011;1535;51.098;6.414;2023-05-07T03:41:14;4.53;;;4.43;;
3050;SDS011;1535;51.098;6.414;2023-05-07T03:43:41;4.37;;;4.27;;
3050;SDS011;1535;51.098;6.414;2023-05-07T03:46:08;4.00;;;3.90;;
3050;SDS011;1535;51.098;6.414;2023-05-07T03:48:35;4.60;;;4.50;;
3050;SDS011;1535;51.098;6.414;2023-05-07T03:51:03;4.33;;;4.23;;
3050;SDS011;1535;51.098;6.414;2023-05-07T03:53:30;4.47;;;4.37;;
3050;SDS011;1535;51.098;6.414;2023-05-07T03:55:58;5.23;;;5.03;;
3050;SDS011;1535;51.098;6.414;2023-05-07T03:58:25;4.73;;;4.63;;
3050;SDS011;1535;51.098;6.414;2023-05-07T04:00:53;4.30;;;4.20;;
3050;SDS011;1535;51.098;6.414;2023-05-07T04:03:20;4.03;;;3.93;;
3050;SDS011;1535;51.098;6.414;2023-05-07T04:05:47;4.10;;;4.00;;
3050;SDS011;1535;51.098;6.414;2023-05-07T04:08:14;3.63;;;3.53;;
3050;SDS011;1535;51.098;6.414;2023-05-07T04:10:41;3.87;;;3.77;;
3050;SDS011;1535;51.098;6.414;2023-05-07T04:13:11;3.70;;;3.60;;
3050;SDS011;1535;51.098;6.414;2023-05-07T04:15:39;3.63;;;3.53;;
3050;SDS011;1535;51.098;6.414;2023-05-07T04:18:06;3.70;;;3.60;;
3050;SDS011;1535;51.098;6.414;2023-05-07T04:20:34;3.47;;;3.37;;
3050;SDS011;1535;51.098;6.414;2023-05-07T04:23:03;3.57;;;3.47;;
3050;SDS011;1535;51.098;6.414;2023-05-07T04:25:30;3.60;;;3.50;;
3050;SDS011;1535;51.098;6.414;2023-05-07T04:27:58;3.50;;;3.40;;
3050;SDS011;1535;51.098;6.414;2023-05-07T04:30:30;3.70;;;3.60;;
3050;SDS011;1535;51.098;6.414;2023-05-07T04:32:56;3.53;;;3.40;;
3050;SDS011;1535;51.098;6.414;2023-05-07T04:35:24;2.80;;;2.70;;
3050;SDS011;1535;51.098;6.414;2023-05-07T04:37:51;4.47;;;4.27;;
3050;SDS011;1535;51.098;6.414;2023-05-07T04:40:18;2.93;;;2.83;;
3050;SDS011;1535;51.098;6.414;2023-05-07T04:42:45;2.87;;;2.77;;
3050;SDS011;1535;51.098;6.414;2023-05-07T04:45:11;2.90;;;2.80;;
3050;SDS011;1535;51.098;6.414;2023-05-07T04:47:39;3.00;;;2.90;;
3050;SDS011;1535;51.098;6.414;2023-05-07T04:50:07;4.10;;;3.90;;
3050;SDS011;1535;51.098;6.414;2023-05-07T04:52:36;3.10;;;3.00;;
3050;SDS011;1535;51.098;6.414;2023-05-07T04:55:04;3.20;;;3.10;;
3050;SDS011;1535;51.098;6.414;2023-05-07T04:57:31;3.03;;;2.93;;
3050;SDS011;1535;51.098;6.414;2023-05-07T05:00:00;2.87;;;2.77;;
3050;SDS011;1535;51.098;6.414;2023-05-07T05:02:28;3.07;;;2.97;;
3050;SDS011;1535;51.098;6.414;2023-05-07T05:04:56;2.70;;;2.60;;
3050;SDS011;1535;51.098;6.414;2023-05-07T05:07:24;3.33;;;3.23;;
3050;SDS011;1535;51.098;6.414;2023-05-07T05:09:51;3.00;;;2.90;;
3050;SDS011;1535;51.098;6.414;2023-05-07T05:12:18;2.87;;;2.77;;
3050;SDS011;1535;51.098;6.414;2023-05-07T05:14:45;3.00;;;2.90;;
3050;SDS011;1535;51.098;6.414;2023-05-07T05:17:12;3.10;;;3.00;;
3050;SDS011;1535;51.098;6.414;2023-05-07T05:19:42;3.03;;;2.93;;
3050;SDS011;1535;51.098;6.414;2023-05-07T05:22:10;3.40;;;3.30;;
3050;SDS011;1535;51.098;6.414;2023-05-07T05:24:38;3.30;;;3.20;;
3050;SDS011;1535;51.098;6.414;2023-05-07T05:27:07;3.53;;;3.43;;
3050;SDS011;1535;51.098;6.414;2023-05-07T05:29:34;3.80;;;3.70;;
3050;SDS011;1535;51.098;6.414;2023-05-07T05:32:00;3.57;;;3.47;;
3050;SDS011;1535;51.098;6.414;2023-05-07T05:34:27;4.40;;;3.90;;
3050;SDS011;1535;51.098;6.414;2023-05-07T05:36:54;3.87;;;3.77;;
3050;SDS011;1535;51.098;6.414;2023-05-07T05:39:25;3.80;;;3.70;;
3050;SDS011;1535;51.098;6.414;2023-05-07T05:41:52;3.40;;;3.30;;
3050;SDS011;1535;51.098;6.414;2023-05-07T05:44:20;4.13;;;4.03;;
3050;SDS011;1535;51.098;6.414;2023-05-07T05:46:46;4.60;;;4.40;;
3050;SDS011;1535;51.098;6.414;2023-05-07T05:49:14;4.20;;;4.10;;
3050;SDS011;1535;51.098;6.414;2023-05-07T05:51:42;6.70;;;5.53;;
3050;SDS011;1535;51.098;6.414;2023-05-07T05:54:09;4.30;;;4.20;;
3050;SDS011;1535;51.098;6.414;2023-05-07T05:56:37;4.47;;;4.37;;
3050;SDS011;1535;51.098;6.414;2023-05-07T05:59:04;4.90;;;4.70;;
3050;SDS011;1535;51.098;6.414;2023-05-07T06:01:31;4.67;;;4.57;;
3050;SDS011;1535;51.098;6.414;2023-05-07T06:03:59;4.40;;;4.30;;
3050;SDS011;1535;51.098;6.414;2023-05-07T06:06:26;4.90;;;4.80;;
3050;SDS011;1535;51.098;6.414;2023-05-07T06:08:54;4.57;;;4.47;;
3050;SDS011;1535;51.098;6.414;2023-05-07T06:11:20;5.20;;;5.00;;
3050;SDS011;1535;51.098;6.414;2023-05-07T06:13:49;5.10;;;5.00;;
3050;SDS011;1535;51.098;6.414;2023-05-07T06:16:16;4.50;;;4.40;;
3050;SDS011;1535;51.098;6.414;2023-05-07T06:18:43;5.57;;;5.37;;
3050;SDS011;1535;51.098;6.414;2023-05-07T06:21:10;6.87;;;6.57;;
3050;SDS011;1535;51.098;6.414;2023-05-07T06:23:37;4.80;;;4.70;;
3050;SDS011;1535;51.098;6.414;2023-05-07T06:26:05;5.20;;;5.10;;
3050;SDS011;1535;51.098;6.414;2023-05-07T06:28:33;5.40;;;5.20;;
3050;SDS011;1535;51.098;6.414;2023-05-07T06:31:11;6.03;;;5.83;;
3050;SDS011;1535;51.098;6.414;2023-05-07T06:33:39;5.40;;;5.20;;
3050;SDS011;1535;51.098;6.414;2023-05-07T06:36:06;6.00;;;5.67;;
3050;SDS011;1535;51.098;6.414;2023-05-07T06:38:32;5.90;;;5.70;;
3050;SDS011;1535;51.098;6.414;2023-05-07T06:40:59;6.20;;;6.00;;
3050;SDS011;1535;51.098;6.414;2023-05-07T06:43:26;7.00;;;6.80;;
3050;SDS011;1535;51.098;6.414;2023-05-07T06:45:53;6.90;;;6.70;;
3050;SDS011;1535;51.098;6.414;2023-05-07T06:48:23;6.90;;;6.70;;
3050;SDS011;1535;51.098;6.414;2023-05-07T06:50:50;7.00;;;6.80;;
3050;SDS011;1535;51.098;6.414;2023-05-07T06:53:16;7.10;;;6.90;;
3050;SDS011;1535;51.098;6.414;2023-05-07T06:55:43;7.20;;;7.00;;
3050;SDS011;1535;51.098;6.414;2023-05-07T06:58:11;7.30;;;7.10;;
3050;SDS011;1535;51.098;6.414;2023-05-07T07:00:39;7.73;;;7.53;;
3050;SDS011;1535;51.098;6.414;2023-05-07T07:03:06;7.70;;;7.47;;
3050;SDS011;1535;51.098;6.414;2023-05-07T07:05:35;8.60;;;8.30;;
3050;SDS011;1535;51.098;6.414;2023-05-07T07:08:02;8.80;;;8.50;;
3050;SDS011;1535;51.098;6.414;2023-05-07T07:10:29;9.23;;;8.93;;
3050;SDS011;1535;51.098;6.414;2023-05-07T07:12:56;9.43;;;9.13;;
3050;SDS011;1535;51.098;6.414;2023-05-07T07:15:23;9.20;;;8.90;;
3050;SDS011;1535;51.098;6.414;2023-05-07T07:17:50;10.33;;;9.93;;
3050;SDS011;1535;51.098;6.414;2023-05-07T07:20:18;10.30;;;9.90;;
3050;SDS011;1535;51.098;6.414;2023-05-07T07:22:49;11.00;;;10.60;;
3050;SDS011;1535;51.098;6.414;2023-05-07T07:25:17;10.77;;;10.37;;
3050;SDS011;1535;51.098;6.414;2023-05-07T07:27:44;11.53;;;11.13;;
3050;SDS011;1535;51.098;6.414;2023-05-07T07:30:11;10.70;;;10.30;;
3050;SDS011;1535;51.098;6.414;2023-05-07T07:32:38;10.80;;;10.40;;
3050;SDS011;1535;51.098;6.414;2023-05-07T07:35:06;12.20;;;11.70;;
3050;SDS011;1535;51.098;6.414;2023-05-07T07:37:34;11.53;;;11.13;;
3050;SDS011;1535;51.098;6.414;2023-05-07T07:40:03;10.87;;;10.47;;
3050;SDS011;1535;51.098;6.414;2023-05-07T07:42:31;11.00;;;10.60;;
3050;SDS011;1535;51.098;6.414;2023-05-07T07:44:57;11.20;;;10.80;;
3050;SDS011;1535;51.098;6.414;2023-05-07T07:47:24;11.63;;;11.20;;
3050;SDS011;1535;51.098;6.414;2023-05-07T07:49:52;11.00;;;10.60;;
3050;SDS011;1535;51.098;6.414;2023-05-07T07:52:19;12.87;;;12.37;;
3050;SDS011;1535;51.098;6.414;2023-05-07T07:54:46;12.23;;;11.77;;
3050;SDS011;1535;51.098;6.414;2023-05-07T07:57:15;11.80;;;11.40;;
3050;SDS011;1535;51.098;6.414;2023-05-07T07:59:41;12.20;;;11.70;;
3050;SDS011;1535;51.098;6.414;2023-05-07T08:02:09;11.93;;;11.53;;
3050;SDS011;1535;51.098;6.414;2023-05-07T08:04:36;12.90;;;12.40;;
3050;SDS011;1535;51.098;6.414;2023-05-07T08:07:03;12.57;;;12.07;;
3050;SDS011;1535;51.098;6.414;2023-05-07T08:09:30;12.57;;;11.97;;
3050;SDS011;1535;51.098;6.414;2023-05-07T08:11:56;12.40;;;11.90;;
3050;SDS011;1535;51.098;6.414;2023-05-07T08:14:25;11.97;;;11.57;;
3050;SDS011;1535;51.098;6.414;2023-05-07T08:16:53;11.90;;;11.50;;
3050;SDS011;1535;51.098;6.414;2023-05-07T08:19:20;11.87;;;11.47;;
3050;SDS011;1535;51.098;6.414;2023-05-07T08:21:47;12.67;;;12.17;;
3050;SDS011;1535;51.098;6.414;2023-05-07T08:24:13;11.47;;;11.07;;
3050;SDS011;1535;51.098;6.414;2023-05-07T08:26:41;12.47;;;11.97;;
3050;SDS011;1535;51.098;6.414;2023-05-07T08:29:09;12.23;;;11.73;;
3050;SDS011;1535;51.098;6.414;2023-05-07T08:31:37;11.97;;;11.53;;
3050;SDS011;1535;51.098;6.414;2023-05-07T08:34:05;12.63;;;12.13;;
3050;SDS011;1535;51.098;6.414;2023-05-07T08:36:32;12.00;;;11.53;;
3050;SDS011;1535;51.098;6.414;2023-05-07T08:38:59;12.50;;;12.00;;
3050;SDS011;1535;51.098;6.414;2023-05-07T08:41:27;12.57;;;12.07;;
3050;SDS011;1535;51.098;6.414;2023-05-07T08:43:56;12.27;;;11.77;;
3050;SDS011;1535;51.098;6.414;2023-05-07T08:46:26;12.60;;;12.10;;
3050;SDS011;1535;51.098;6.414;2023-05-07T08:48:59;11.80;;;11.40;;
3050;SDS011;1535;51.098;6.414;2023-05-07T08:51:26;12.40;;;11.90;;
3050;SDS011;1535;51.098;6.414;2023-05-07T08:53:55;12.17;;;11.67;;
3050;SDS011;1535;51.098;6.414;2023-05-07T08:56:23;11.30;;;10.90;;
3050;SDS011;1535;51.098;6.414;2023-05-07T08:58:50;12.30;;;11.80;;
3050;SDS011;1535;51.098;6.414;2023-05-07T09:01:21;11.90;;;11.50;;
3050;SDS011;1535;51.098;6.414;2023-05-07T09:03:49;11.97;;;11.57;;
3050;SDS011;1535;51.098;6.414;2023-05-07T09:06:19;12.50;;;12.00;;
3050;SDS011;1535;51.098;6.414;2023-05-07T09:08:49;12.10;;;11.70;;
3050;SDS011;1535;51.098;6.414;2023-05-07T09:11:19;13.30;;;12.80;;
3050;SDS011;1535;51.098;6.414;2023-05-07T09:13:47;13.10;;;12.60;;
3050;SDS011;1535;51.098;6.414;2023-05-07T09:16:15;13.10;;;12.60;;
3050;SDS011;1535;51.098;6.414;2023-05-07T09:18:42;13.23;;;12.73;;
3050;SDS011;1535;51.098;6.414;2023-05-07T09:21:10;13.73;;;13.23;;
3050;SDS011;1535;51.098;6.414;2023-05-07T09:23:39;13.87;;;13.37;;
3050;SDS011;1535;51.098;6.414;2023-05-07T09:26:06;13.07;;;12.57;;
3050;SDS011;1535;51.098;6.414;2023-05-07T09:28:37;13.70;;;13.20;;
3050;SDS011;1535;51.098;6.414;2023-05-07T09:31:06;13.70;;;13.20;;
3050;SDS011;1535;51.098;6.414;2023-05-07T09:33:33;13.80;;;13.30;;
3050;SDS011;1535;51.098;6.414;2023-05-07T09:36:04;14.27;;;13.70;;
3050;SDS011;1535;51.098;6.414;2023-05-07T09:38:31;15.67;;;14.97;;
3050;SDS011;1535;51.098;6.414;2023-05-07T09:41:04;15.23;;;14.63;;
3050;SDS011;1535;51.098;6.414;2023-05-07T09:43:32;13.93;;;13.40;;
3050;SDS011;1535;51.098;6.414;2023-05-07T09:46:01;14.00;;;13.40;;
3050;SDS011;1535;51.098;6.414;2023-05-07T09:48:29;14.57;;;13.97;;
3050;SDS011;1535;51.098;6.414;2023-05-07T09:50:58;15.00;;;14.40;;
3050;SDS011;1535;51.098;6.414;2023-05-07T09:53:29;16.00;;;15.30;;
3050;SDS011;1535;51.098;6.414;2023-05-07T09:55:57;15.40;;;14.70;;
3050;SDS011;1535;51.098;6.414;2023-05-07T09:58:26;15.30;;;14.60;;
3050;SDS011;1535;51.098;6.414;2023-05-07T10:00:54;15.57;;;14.87;;
3050;SDS011;1535;51.098;6.414;2023-05-07T10:03:22;15.70;;;15.00;;
3050;SDS011;1535;51.098;6.414;2023-05-07T10:05:53;15.03;;;14.43;;
3050;SDS011;1535;51.098;6.414;2023-05-07T10:08:21;15.10;;;14.50;;
3050;SDS011;1535;51.098;6.414;2023-05-07T10:10:48;14.83;;;14.23;;
3050;SDS011;1535;51.098;6.414;2023-05-07T10:13:16;15.20;;;14.60;;
3050;SDS011;1535;51.098;6.414;2023-05-07T10:15:46;14.80;;;14.20;;
3050;SDS011;1535;51.098;6.414;2023-05-07T10:18:15;14.50;;;13.90;;
3050;SDS011;1535;51.098;6.414;2023-05-07T10:20:42;14.23;;;13.63;;
3050;SDS011;1535;51.098;6.414;2023-05-07T10:23:12;13.70;;;13.10;;
3050;SDS011;1535;51.098;6.414;2023-05-07T10:25:43;14.57;;;13.97;;
3050;SDS011;1535;51.098;6.414;2023-05-07T10:28:10;14.33;;;13.73;;
3050;SDS011;1535;51.098;6.414;2023-05-07T10:30:40;14.90;;;14.30;;
3050;SDS011;1535;51.098;6.414;2023-05-07T10:33:19;14.20;;;13.60;;
3050;SDS011;1535;51.098;6.414;2023-05-07T10:35:51;14.80;;;14.20;;
3050;SDS011;1535;51.098;6.414;2023-05-07T10:38:22;14.40;;;13.80;;
3050;SDS011;1535;51.098;6.414;2023-05-07T10:40:50;14.80;;;14.20;;
3050;SDS011;1535;51.098;6.414;2023-05-07T10:43:17;14.50;;;13.90;;
3050;SDS011;1535;51.098;6.414;2023-05-07T10:45:45;14.93;;;14.23;;
3050;SDS011;1535;51.098;6.414;2023-05-07T10:51:33;14.97;;;14.37;;
3050;SDS011;1535;51.098;6.414;2023-05-07T10:56:47;14.83;;;14.23;;
3050;SDS011;1535;51.098;6.414;2023-05-07T10:59:31;15.10;;;14.50;;
3050;SDS011;1535;51.098;6.414;2023-05-07T11:02:08;14.83;;;14.23;;
3050;SDS011;1535;51.098;6.414;2023-05-07T11:04:39;14.80;;;14.20;;
3050;SDS011;1535;51.098;6.414;2023-05-07T11:07:21;15.00;;;14.40;;
3050;SDS011;1535;51.098;6.414;2023-05-07T11:09:54;15.67;;;15.00;;
3050;SDS011;1535;51.098;6.414;2023-05-07T11:15:34;15.70;;;15.00;;
3050;SDS011;1535;51.098;6.414;2023-05-07T11:18:09;14.50;;;13.90;;
3050;SDS011;1535;51.098;6.414;2023-05-07T11:20:45;15.40;;;14.70;;
3050;SDS011;1535;51.098;6.414;2023-05-07T11:26:22;14.60;;;14.00;;
3050;SDS011;1535;51.098;6.414;2023-05-07T11:28:50;16.30;;;15.60;;
3050;SDS011;1535;51.098;6.414;2023-05-07T11:31:20;14.40;;;13.80;;
3050;SDS011;1535;51.098;6.414;2023-05-07T11:33:50;14.07;;;13.50;;
3050;SDS011;1535;51.098;6.414;2023-05-07T11:36:17;15.03;;;14.23;;
3050;SDS011;1535;51.098;6.414;2023-05-07T11:38:45;15.40;;;14.80;;
3050;SDS011;1535;51.098;6.414;2023-05-07T11:41:12;14.60;;;14.00;;
3050;SDS011;1535;51.098;6.414;2023-05-07T11:43:53;15.60;;;14.90;;
3050;SDS011;1535;51.098;6.414;2023-05-07T11:46:21;15.50;;;14.90;;
3050;SDS011;1535;51.098;6.414;2023-05-07T11:48:50;14.73;;;14.13;;
3050;SDS011;1535;51.098;6.414;2023-05-07T11:51:20;14.70;;;14.10;;
3050;SDS011;1535;51.098;6.414;2023-05-07T11:53:47;14.70;;;14.10;;
3050;SDS011;1535;51.098;6.414;2023-05-07T11:56:15;14.60;;;14.00;;
3050;SDS011;1535;51.098;6.414;2023-05-07T11:58:43;14.70;;;14.10;;
3050;SDS011;1535;51.098;6.414;2023-05-07T12:01:12;15.13;;;14.53;;
3050;SDS011;1535;51.098;6.414;2023-05-07T12:03:40;14.53;;;13.93;;
3050;SDS011;1535;51.098;6.414;2023-05-07T12:06:10;14.90;;;14.30;;
3050;SDS011;1535;51.098;6.414;2023-05-07T12:08:38;14.60;;;14.00;;
3050;SDS011;1535;51.098;6.414;2023-05-07T12:11:09;14.93;;;14.33;;
3050;SDS011;1535;51.098;6.414;2023-05-07T12:13:38;14.63;;;14.03;;
3050;SDS011;1535;51.098;6.414;2023-05-07T12:16:05;14.27;;;13.67;;
3050;SDS011;1535;51.098;6.414;2023-05-07T12:18:36;13.60;;;13.10;;
3050;SDS011;1535;51.098;6.414;2023-05-07T12:21:04;14.03;;;13.43;;
3050;SDS011;1535;51.098;6.414;2023-05-07T12:23:34;14.00;;;13.40;;
3050;SDS011;1535;51.098;6.414;2023-05-07T12:26:02;14.53;;;13.93;;
3050;SDS011;1535;51.098;6.414;2023-05-07T12:28:31;15.00;;;14.40;;
3050;SDS011;1535;51.098;6.414;2023-05-07T12:31:04;13.80;;;13.30;;
3050;SDS011;1535;51.098;6.414;2023-05-07T12:33:32;15.20;;;14.60;;
3050;SDS011;1535;51.098;6.414;2023-05-07T12:36:00;14.20;;;13.60;;
3050;SDS011;1535;51.098;6.414;2023-05-07T12:38:36;14.20;;;13.60;;
3050;SDS011;1535;51.098;6.414;2023-05-07T12:41:04;13.63;;;13.13;;
3050;SDS011;1535;51.098;6.414;2023-05-07T12:43:32;13.20;;;12.67;;
3050;SDS011;1535;51.098;6.414;2023-05-07T12:45:59;13.50;;;13.00;;
3050;SDS011;1535;51.098;6.414;2023-05-07T12:48:28;13.20;;;12.70;;
3050;SDS011;1535;51.098;6.414;2023-05-07T12:50:56;13.80;;;13.00;;
3050;SDS011;1535;51.098;6.414;2023-05-07T12:53:24;12.93;;;12.43;;
3050;SDS011;1535;51.098;6.414;2023-05-07T12:55:54;12.97;;;12.47;;
3050;SDS011;1535;51.098;6.414;2023-05-07T12:58:24;13.57;;;13.07;;
3050;SDS011;1535;51.098;6.414;2023-05-07T13:00:52;14.10;;;13.50;;
3050;SDS011;1535;51.098;6.414;2023-05-07T13:03:24;15.13;;;14.53;;
3050;SDS011;1535;51.098;6.414;2023-05-07T13:05:52;14.40;;;13.80;;
3050;SDS011;1535;51.098;6.414;2023-05-07T13:08:24;14.37;;;13.77;;
3050;SDS011;1535;51.098;6.414;2023-05-07T13:10:59;13.83;;;13.27;;
3050;SDS011;1535;51.098;6.414;2023-05-07T13:13:28;13.80;;;13.30;;
3050;SDS011;1535;51.098;6.414;2023-05-07T13:15:56;13.93;;;13.33;;
3050;SDS011;1535;51.098;6.414;2023-05-07T13:18:24;13.93;;;13.13;;
3050;SDS011;1535;51.098;6.414;2023-05-07T13:20:51;14.10;;;13.50;;
3050;SDS011;1535;51.098;6.414;2023-05-07T13:23:18;13.13;;;12.63;;
3050;SDS011;1535;51.098;6.414;2023-05-07T13:25:45;13.10;;;12.60;;
3050;SDS011;1535;51.098;6.414;2023-05-07T13:28:13;12.30;;;11.80;;
3050;SDS011;1535;51.098;6.414;2023-05-07T13:30:41;12.00;;;11.50;;
3050;SDS011;1535;51.098;6.414;2023-05-07T13:33:07;11.60;;;11.20;;
3050;SDS011;1535;51.098;6.414;2023-05-07T13:35:35;14.20;;;13.60;;
3050;SDS011;1535;51.098;6.414;2023-05-07T13:38:02;33.47;;;30.90;;
3050;SDS011;1535;51.098;6.414;2023-05-07T13:40:30;31.07;;;28.30;;
3050;SDS011;1535;51.098;6.414;2023-05-07T13:42:58;27.37;;;25.47;;
3050;SDS011;1535;51.098;6.414;2023-05-07T13:45:29;24.60;;;22.70;;
3050;SDS011;1535;51.098;6.414;2023-05-07T13:47:57;23.10;;;21.80;;
3050;SDS011;1535;51.098;6.414;2023-05-07T13:50:24;22.33;;;20.80;;
3050;SDS011;1535;51.098;6.414;2023-05-07T13:52:54;20.80;;;19.80;;
3050;SDS011;1535;51.098;6.414;2023-05-07T13:55:21;21.33;;;19.13;;
3050;SDS011;1535;51.098;6.414;2023-05-07T13:57:54;18.73;;;17.90;;
3050;SDS011;1535;51.098;6.414;2023-05-07T14:00:22;18.07;;;17.27;;
3050;SDS011;1535;51.098;6.414;2023-05-07T14:02:50;17.80;;;17.00;;
3050;SDS011;1535;51.098;6.414;2023-05-07T14:05:18;19.93;;;18.93;;
3050;SDS011;1535;51.098;6.414;2023-05-07T14:07:45;19.97;;;19.07;;
3050;SDS011;1535;51.098;6.414;2023-05-07T14:10:13;18.70;;;17.80;;
3050;SDS011;1535;51.098;6.414;2023-05-07T14:12:40;19.20;;;18.30;;
3050;SDS011;1535;51.098;6.414;2023-05-07T14:15:07;18.07;;;17.27;;
3050;SDS011;1535;51.098;6.414;2023-05-07T14:17:34;19.60;;;18.70;;
3050;SDS011;1535;51.098;6.414;2023-05-07T14:20:03;18.03;;;17.23;;
3050;SDS011;1535;51.098;6.414;2023-05-07T14:22:32;17.07;;;16.27;;
3050;SDS011;1535;51.098;6.414;2023-05-07T14:24:59;16.87;;;16.13;;
3050;SDS011;1535;51.098;6.414;2023-05-07T14:27:27;16.00;;;15.30;;
3050;SDS011;1535;51.098;6.414;2023-05-07T14:29:54;15.73;;;15.13;;
3050;SDS011;1535;51.098;6.414;2023-05-07T14:32:22;14.70;;;14.10;;
3050;SDS011;1535;51.098;6.414;2023-05-07T14:34:49;15.00;;;14.40;;
3050;SDS011;1535;51.098;6.414;2023-05-07T14:37:19;14.93;;;14.33;;
3050;SDS011;1535;51.098;6.414;2023-05-07T14:39:46;14.50;;;13.90;;
3050;SDS011;1535;51.098;6.414;2023-05-07T14:42:13;13.70;;;13.20;;
3050;SDS011;1535;51.098;6.414;2023-05-07T14:44:40;13.03;;;12.53;;
3050;SDS011;1535;51.098;6.414;2023-05-07T14:47:08;12.30;;;11.83;;
3050;SDS011;1535;51.098;6.414;2023-05-07T14:49:35;13.67;;;13.07;;
3050;SDS011;1535;51.098;6.414;2023-05-07T14:52:02;12.27;;;11.73;;
3050;SDS011;1535;51.098;6.414;2023-05-07T14:54:33;12.00;;;11.50;;
3050;SDS011;1535;51.098;6.414;2023-05-07T14:57:00;12.50;;;12.00;;
3050;SDS011;1535;51.098;6.414;2023-05-07T14:59:27;12.23;;;11.73;;
3050;SDS011;1535;51.098;6.414;2023-05-07T15:01:54;12.97;;;12.37;;
3050;SDS011;1535;51.098;6.414;2023-05-07T15:04:21;11.20;;;10.80;;
3050;SDS011;1535;51.098;6.414;2023-05-07T15:06:47;11.10;;;10.70;;
3050;SDS011;1535;51.098;6.414;2023-05-07T15:09:14;10.67;;;10.27;;
3050;SDS011;1535;51.098;6.414;2023-05-07T15:11:42;9.90;;;9.60;;
3050;SDS011;1535;51.098;6.414;2023-05-07T15:14:09;10.30;;;9.90;;
3050;SDS011;1535;51.098;6.414;2023-05-07T15:16:36;9.70;;;9.40;;
3050;SDS011;1535;51.098;6.414;2023-05-07T15:19:03;9.63;;;9.23;;